createdAt,value
2024-03-13T00:00:17.845Z,7.05
2024-03-13T00:00:49.816Z,7.10
2024-03-13T00:01:22.469Z,7.23
2024-03-13T00:01:54.668Z,7.17
2024-03-13T00:02:26.527Z,7.11
2024-03-13T00:02:59.813Z,6.93
2024-03-13T00:03:33.372Z,6.89
2024-03-13T00:04:06.482Z,6.95
2024-03-13T00:04:47.364Z,7.03
2024-03-13T00:05:22.395Z,7.11
2024-03-13T00:05:57.016Z,7.01
2024-03-13T00:06:29.333Z,6.94
2024-03-13T00:07:02.276Z,6.97
2024-03-13T00:07:34.127Z,7.05
2024-03-13T00:08:08.330Z,6.95
2024-03-13T00:08:41.049Z,6.87
2024-03-13T00:09:13.642Z,7.04
2024-03-13T00:09:47.034Z,7.09
2024-03-13T00:10:19.369Z,7.03
2024-03-13T00:10:51.781Z,6.91
2024-03-13T00:11:27.035Z,6.87
2024-03-13T00:11:58.893Z,6.92
2024-03-13T00:12:31.684Z,6.85
2024-03-13T00:13:03.565Z,6.92
2024-03-13T00:13:35.553Z,6.94
2024-03-13T00:14:07.679Z,6.86
2024-03-13T00:14:39.523Z,6.82
2024-03-13T00:15:12.360Z,6.78
2024-03-13T00:15:45.633Z,6.83
2024-03-13T00:16:17.569Z,6.84
2024-03-13T00:16:49.432Z,6.84
2024-03-13T00:17:21.601Z,6.94
2024-03-13T00:17:53.504Z,6.90
2024-03-13T00:18:25.450Z,6.92
2024-03-13T00:18:57.330Z,6.92
2024-03-13T00:19:29.219Z,6.92
2024-03-13T00:20:01.197Z,6.91
2024-03-13T00:20:33.090Z,6.95
2024-03-13T00:21:05.616Z,6.98
2024-03-13T00:21:40.150Z,6.92
2024-03-13T00:22:13.992Z,6.94
2024-03-13T00:22:46.718Z,7.08
2024-03-13T00:23:19.580Z,6.86
2024-03-13T00:23:53.789Z,6.83
2024-03-13T00:24:25.670Z,6.87
2024-03-13T00:24:58.297Z,6.80
2024-03-13T00:25:30.493Z,6.85
2024-03-13T00:26:02.340Z,6.89
2024-03-13T00:26:34.951Z,6.83
2024-03-13T00:27:07.010Z,6.86
2024-03-13T00:27:40.646Z,6.92
2024-03-13T00:28:12.720Z,6.80
2024-03-13T00:28:44.565Z,6.82
2024-03-13T00:29:16.367Z,6.86
2024-03-13T00:29:49.507Z,6.82
2024-03-13T00:30:22.119Z,6.81
2024-03-13T00:30:54.011Z,6.83
2024-03-13T00:31:25.929Z,6.90
2024-03-13T00:31:57.791Z,6.94
2024-03-13T00:32:29.664Z,6.86
2024-03-13T00:33:01.607Z,6.97
2024-03-13T00:33:33.460Z,6.86
2024-03-13T00:34:07.613Z,6.91
2024-03-13T00:34:39.872Z,6.98
2024-03-13T00:35:14.574Z,6.95
2024-03-13T00:35:46.413Z,6.93
2024-03-13T00:36:20.444Z,7.06
2024-03-13T00:36:52.329Z,6.92
2024-03-13T00:37:24.454Z,6.79
2024-03-13T00:37:56.453Z,6.78
2024-03-13T00:38:28.249Z,6.71
2024-03-13T00:39:00.119Z,6.76
2024-03-13T00:39:32.249Z,6.77
2024-03-13T00:40:07.636Z,6.68
2024-03-13T00:40:40.362Z,6.76
2024-03-13T00:41:12.222Z,6.76
2024-03-13T00:41:44.765Z,6.79
2024-03-13T00:42:17.455Z,6.86
2024-03-13T00:42:49.284Z,6.77
2024-03-13T00:43:22.067Z,6.75
2024-03-13T00:43:54.587Z,6.81
2024-03-13T00:44:26.522Z,6.72
2024-03-13T00:44:58.992Z,6.69
2024-03-13T00:45:30.827Z,6.82
2024-03-13T00:46:02.745Z,6.93
2024-03-13T00:46:35.098Z,6.92
2024-03-13T00:47:07.955Z,6.78
2024-03-13T00:47:40.072Z,6.81
2024-03-13T00:48:12.401Z,6.86
2024-03-13T00:48:44.350Z,6.85
2024-03-13T00:49:16.638Z,6.88
2024-03-13T00:49:48.481Z,6.84
2024-03-13T00:50:20.340Z,6.76
2024-03-13T00:50:52.144Z,6.71
2024-03-13T00:51:24.461Z,6.76
2024-03-13T00:51:56.318Z,6.77
2024-03-13T00:52:29.984Z,6.82
2024-03-13T00:53:02.301Z,6.74
2024-03-13T00:53:34.111Z,6.70
2024-03-13T00:54:06.057Z,6.66
2024-03-13T00:54:38.153Z,6.72
2024-03-13T00:55:12.023Z,6.74
2024-03-13T00:55:44.180Z,6.78
2024-03-13T00:56:17.053Z,6.75
2024-03-13T00:56:49.529Z,6.68
2024-03-13T00:57:21.497Z,6.72
2024-03-13T00:57:53.334Z,6.82
2024-03-13T00:58:25.283Z,6.90
2024-03-13T00:58:57.406Z,6.81
2024-03-13T00:59:30.826Z,6.74
2024-03-13T01:00:05.425Z,6.73
2024-03-13T01:00:38.272Z,6.72
2024-03-13T01:01:12.408Z,6.72
2024-03-13T01:01:49.631Z,6.89
2024-03-13T01:02:24.267Z,6.70
2024-03-13T01:02:56.220Z,6.87
2024-03-13T01:03:29.452Z,6.85
2024-03-13T01:04:01.339Z,6.81
2024-03-13T01:04:34.339Z,6.71
2024-03-13T01:05:06.299Z,6.81
2024-03-13T01:05:38.188Z,6.72
2024-03-13T01:06:09.992Z,6.72
2024-03-13T01:06:42.246Z,6.74
2024-03-13T01:07:14.130Z,6.76
2024-03-13T01:07:50.111Z,6.75
2024-03-13T01:08:22.244Z,6.76
2024-03-13T01:08:54.071Z,6.73
2024-03-13T01:09:25.940Z,6.70
2024-03-13T01:09:57.808Z,6.66
2024-03-13T01:10:29.669Z,6.78
2024-03-13T01:11:02.067Z,6.63
2024-03-13T01:11:35.283Z,6.65
2024-03-13T01:12:08.140Z,6.70
2024-03-13T01:12:40.888Z,6.67
2024-03-13T01:13:12.805Z,6.61
2024-03-13T01:13:44.697Z,6.61
2024-03-13T01:14:21.113Z,6.56
2024-03-13T01:14:52.979Z,6.67
2024-03-13T01:15:25.181Z,6.58
2024-03-13T01:15:57.119Z,6.58
2024-03-13T01:16:29.031Z,6.70
2024-03-13T01:17:02.687Z,6.57
2024-03-13T01:17:35.848Z,6.60
2024-03-13T01:18:10.730Z,6.56
2024-03-13T01:18:42.884Z,6.48
2024-03-13T01:19:14.808Z,6.46
2024-03-13T01:19:46.725Z,6.44
2024-03-13T01:20:20.177Z,6.53
2024-03-13T01:20:51.988Z,6.52
2024-03-13T01:21:23.787Z,6.63
2024-03-13T01:22:06.763Z,6.67
2024-03-13T01:22:41.106Z,6.57
2024-03-13T01:23:12.912Z,6.59
2024-03-13T01:23:44.818Z,6.62
2024-03-13T01:24:18.212Z,6.66
2024-03-13T01:24:50.065Z,6.61
2024-03-13T01:25:21.939Z,6.54
2024-03-13T01:25:55.723Z,6.54
2024-03-13T01:26:27.692Z,6.58
2024-03-13T01:27:00.115Z,6.59
2024-03-13T01:27:31.964Z,6.61
2024-03-13T01:28:04.087Z,6.59
2024-03-13T01:28:39.468Z,6.62
2024-03-13T01:29:11.313Z,6.70
2024-03-13T01:29:47.546Z,6.67
2024-03-13T01:30:19.658Z,6.52
2024-03-13T01:30:51.502Z,6.53
2024-03-13T01:31:24.949Z,6.53
2024-03-13T01:31:59.928Z,6.47
2024-03-13T01:32:31.959Z,6.43
2024-03-13T01:33:04.092Z,6.48
2024-03-13T01:33:42.178Z,6.56
2024-03-13T01:34:14.050Z,6.57
2024-03-13T01:34:47.867Z,6.53
2024-03-13T01:35:20.589Z,6.54
2024-03-13T01:35:52.955Z,6.54
2024-03-13T01:36:44.869Z,6.48
2024-03-13T01:37:35.280Z,6.46
2024-03-13T01:38:07.142Z,6.53
2024-03-13T01:38:39.071Z,6.57
2024-03-13T01:39:11.091Z,6.58
2024-03-13T01:39:43.027Z,6.55
2024-03-13T01:40:20.488Z,6.64
2024-03-13T01:41:11.062Z,6.85
2024-03-13T01:42:03.581Z,6.66
2024-03-13T01:42:54.066Z,6.63
2024-03-13T01:43:44.675Z,6.62
2024-03-13T01:44:34.834Z,6.52
2024-03-13T01:45:49.472Z,6.62
2024-03-13T01:46:40.643Z,6.46
2024-03-13T01:47:35.582Z,6.41
2024-03-13T01:48:43.457Z,6.38
2024-03-13T01:49:39.008Z,6.45
2024-03-13T01:50:37.057Z,6.51
2024-03-13T01:51:27.418Z,6.41
2024-03-13T01:52:24.106Z,6.40
2024-03-13T01:53:18.719Z,6.50
2024-03-13T01:54:09.184Z,6.44
2024-03-13T01:54:52.206Z,6.49
2024-03-13T01:55:29.839Z,6.56
2024-03-13T01:56:22.238Z,6.56
2024-03-13T01:57:01.893Z,6.51
2024-03-13T01:57:56.975Z,6.56
2024-03-13T01:58:41.217Z,6.49
2024-03-13T01:59:24.855Z,6.59
2024-03-13T02:00:16.381Z,6.44
2024-03-13T02:01:06.984Z,6.52
2024-03-13T02:01:57.453Z,6.45
2024-03-13T02:02:29.626Z,6.38
2024-03-13T02:03:01.896Z,6.54
2024-03-13T02:03:33.790Z,6.47
2024-03-13T02:04:06.131Z,6.49
2024-03-13T02:04:38.017Z,6.52
2024-03-13T02:05:10.398Z,6.42
2024-03-13T02:05:46.165Z,6.31
2024-03-13T02:06:18.250Z,6.46
2024-03-13T02:06:51.497Z,6.35
2024-03-13T02:07:25.019Z,6.49
2024-03-13T02:07:56.999Z,6.51
2024-03-13T02:08:33.623Z,6.59
2024-03-13T02:09:07.399Z,6.56
2024-03-13T02:09:39.317Z,6.51
2024-03-13T02:10:11.492Z,6.49
2024-03-13T02:10:43.587Z,6.48
2024-03-13T02:11:15.485Z,6.47
2024-03-13T02:11:47.590Z,6.57
2024-03-13T02:12:19.473Z,6.55
2024-03-13T02:13:04.563Z,6.58
2024-03-13T02:13:40.203Z,6.57
2024-03-13T02:14:12.002Z,6.55
2024-03-13T02:14:44.172Z,6.58
2024-03-13T02:15:16.014Z,6.53
2024-03-13T02:15:47.980Z,6.60
2024-03-13T02:16:19.895Z,6.57
2024-03-13T02:16:53.617Z,6.47
2024-03-13T02:17:25.822Z,6.57
2024-03-13T02:18:03.546Z,6.63
2024-03-13T02:18:36.982Z,6.58
2024-03-13T02:19:09.110Z,6.56
2024-03-13T02:19:41.496Z,6.51
2024-03-13T02:20:16.643Z,6.67
2024-03-13T02:20:50.209Z,6.70
2024-03-13T02:21:22.047Z,6.67
2024-03-13T02:21:59.241Z,6.63
2024-03-13T02:22:31.745Z,6.60
2024-03-13T02:23:07.063Z,6.67
2024-03-13T02:23:40.415Z,6.72
2024-03-13T02:24:13.181Z,6.67
2024-03-13T02:24:45.568Z,6.67
2024-03-13T02:25:17.478Z,6.69
2024-03-13T02:25:52.600Z,6.71
2024-03-13T02:26:26.094Z,6.71
2024-03-13T02:26:58.063Z,6.83
2024-03-13T02:27:29.909Z,6.76
2024-03-13T02:28:02.326Z,6.76
2024-03-13T02:28:35.898Z,6.75
2024-03-13T02:29:08.346Z,6.56
2024-03-13T02:29:44.110Z,6.60
2024-03-13T02:30:15.979Z,6.66
2024-03-13T02:30:48.766Z,6.67
2024-03-13T02:31:21.052Z,6.76
2024-03-13T02:31:53.202Z,6.66
2024-03-13T02:32:25.034Z,6.71
2024-03-13T02:32:56.913Z,6.75
2024-03-13T02:33:29.559Z,6.74
2024-03-13T02:34:01.480Z,6.77
2024-03-13T02:34:33.481Z,6.74
2024-03-13T02:35:05.497Z,6.58
2024-03-13T02:35:37.332Z,6.66
2024-03-13T02:36:09.664Z,6.68
2024-03-13T02:36:41.477Z,6.64
2024-03-13T02:37:13.372Z,6.81
2024-03-13T02:37:45.586Z,6.74
2024-03-13T02:38:17.420Z,6.74
2024-03-13T02:38:50.723Z,6.67
2024-03-13T02:39:22.605Z,6.74
2024-03-13T02:39:54.508Z,6.67
2024-03-13T02:40:26.386Z,6.61
2024-03-13T02:40:58.325Z,6.74
2024-03-13T02:41:30.159Z,6.76
2024-03-13T02:42:02.777Z,6.79
2024-03-13T02:42:34.640Z,6.68
2024-03-13T02:43:06.471Z,6.73
2024-03-13T02:43:41.465Z,6.66
2024-03-13T02:44:13.262Z,6.72
2024-03-13T02:44:45.305Z,6.61
2024-03-13T02:45:17.725Z,6.58
2024-03-13T02:45:49.933Z,6.72
2024-03-13T02:46:21.806Z,6.70
2024-03-13T02:46:55.286Z,6.68
2024-03-13T02:47:27.156Z,6.58
2024-03-13T02:47:59.240Z,6.44
2024-03-13T02:48:31.064Z,6.53
2024-03-13T02:49:02.956Z,6.48
2024-03-13T02:49:37.065Z,6.45
2024-03-13T02:50:13.005Z,6.48
2024-03-13T02:50:46.093Z,6.39
2024-03-13T02:51:17.966Z,6.46
2024-03-13T02:51:49.833Z,6.51
2024-03-13T02:52:21.981Z,6.47
2024-03-13T02:52:53.893Z,6.55
2024-03-13T02:53:25.772Z,6.42
2024-03-13T02:53:58.279Z,6.43
2024-03-13T02:54:30.131Z,6.55
2024-03-13T02:55:02.010Z,6.41
2024-03-13T02:55:34.440Z,6.46
2024-03-13T02:56:09.061Z,6.47
2024-03-13T02:56:40.884Z,6.53
2024-03-13T02:57:12.722Z,6.43
2024-03-13T02:57:46.028Z,6.47
2024-03-13T02:58:17.956Z,6.55
2024-03-13T02:58:50.484Z,6.45
2024-03-13T02:59:22.311Z,6.54
2024-03-13T02:59:54.157Z,6.47
2024-03-13T03:00:26.967Z,6.48
2024-03-13T03:00:59.991Z,6.49
2024-03-13T03:01:32.006Z,6.36
2024-03-13T03:02:07.232Z,6.42
2024-03-13T03:02:41.216Z,6.49
2024-03-13T03:03:14.489Z,6.49
2024-03-13T03:03:46.461Z,6.49
2024-03-13T03:04:19.982Z,6.52
2024-03-13T03:04:52.289Z,6.49
2024-03-13T03:05:25.424Z,6.51
2024-03-13T03:05:57.868Z,6.43
2024-03-13T03:06:29.697Z,6.42
2024-03-13T03:07:02.237Z,6.46
2024-03-13T03:07:35.164Z,6.38
2024-03-13T03:08:08.276Z,6.48
2024-03-13T03:08:43.222Z,6.47
2024-03-13T03:09:15.051Z,6.41
2024-03-13T03:09:46.894Z,6.42
2024-03-13T03:10:19.019Z,6.50
2024-03-13T03:10:51.723Z,6.57
2024-03-13T03:11:26.754Z,6.59
2024-03-13T03:11:58.627Z,6.56
2024-03-13T03:12:30.487Z,6.55
2024-03-13T03:13:02.354Z,6.46
2024-03-13T03:13:34.432Z,6.39
2024-03-13T03:14:06.435Z,6.37
2024-03-13T03:14:38.331Z,6.37
2024-03-13T03:15:13.244Z,6.46
2024-03-13T03:15:45.813Z,6.58
2024-03-13T03:16:19.475Z,6.47
2024-03-13T03:16:51.439Z,6.51
2024-03-13T03:17:23.801Z,6.46
2024-03-13T03:17:55.804Z,6.40
2024-03-13T03:18:27.772Z,6.44
2024-03-13T03:19:01.096Z,6.32
2024-03-13T03:19:35.429Z,6.38
2024-03-13T03:20:07.921Z,6.37
2024-03-13T03:20:41.114Z,6.35
2024-03-13T03:21:14.202Z,6.41
2024-03-13T03:21:46.092Z,6.40
2024-03-13T03:22:20.750Z,6.39
2024-03-13T03:22:52.650Z,6.37
2024-03-13T03:23:24.477Z,6.41
2024-03-13T03:23:58.792Z,6.36
2024-03-13T03:24:33.423Z,6.41
2024-03-13T03:25:06.869Z,6.36
2024-03-13T03:25:39.106Z,6.34
2024-03-13T03:26:17.702Z,6.31
2024-03-13T03:26:49.538Z,6.35
2024-03-13T03:27:21.401Z,6.35
2024-03-13T03:27:53.261Z,6.49
2024-03-13T03:28:25.154Z,6.51
2024-03-13T03:28:59.896Z,6.52
2024-03-13T03:29:31.700Z,6.42
2024-03-13T03:30:05.008Z,6.39
2024-03-13T03:30:42.857Z,6.45
2024-03-13T03:31:14.915Z,6.44
2024-03-13T03:31:46.766Z,6.42
2024-03-13T03:32:18.855Z,6.51
2024-03-13T03:32:50.811Z,6.51
2024-03-13T03:33:22.666Z,6.53
2024-03-13T03:33:54.548Z,6.42
2024-03-13T03:34:26.573Z,6.52
2024-03-13T03:34:58.457Z,6.58
2024-03-13T03:35:30.698Z,6.57
2024-03-13T03:36:03.007Z,6.64
2024-03-13T03:36:34.841Z,6.56
2024-03-13T03:37:07.208Z,6.52
2024-03-13T03:37:39.445Z,6.55
2024-03-13T03:38:11.407Z,6.46
2024-03-13T03:38:43.215Z,6.49
2024-03-13T03:39:16.336Z,6.61
2024-03-13T03:39:49.490Z,6.54
2024-03-13T03:40:24.385Z,6.50
2024-03-13T03:40:56.475Z,6.50
2024-03-13T03:41:28.337Z,6.46
2024-03-13T03:42:00.228Z,6.43
2024-03-13T03:42:32.428Z,6.45
2024-03-13T03:43:05.560Z,6.48
2024-03-13T03:43:38.658Z,6.43
2024-03-13T03:44:12.501Z,6.45
2024-03-13T03:44:44.313Z,6.46
2024-03-13T03:45:18.053Z,6.50
2024-03-13T03:45:51.054Z,6.54
2024-03-13T03:46:22.955Z,6.55
2024-03-13T03:46:54.799Z,6.40
2024-03-13T03:47:26.660Z,6.53
2024-03-13T03:48:04.785Z,6.46
2024-03-13T03:48:42.690Z,6.41
2024-03-13T03:49:14.583Z,6.44
2024-03-13T03:49:46.416Z,6.49
2024-03-13T03:50:18.444Z,6.46
2024-03-13T03:50:50.295Z,6.34
2024-03-13T03:51:22.097Z,6.29
2024-03-13T03:51:54.028Z,6.34
2024-03-13T03:52:25.938Z,6.20
2024-03-13T03:52:57.825Z,6.30
2024-03-13T03:53:29.685Z,6.31
2024-03-13T03:54:02.044Z,6.15
2024-03-13T03:54:35.603Z,6.23
2024-03-13T03:55:07.836Z,6.31
2024-03-13T03:55:39.732Z,6.36
2024-03-13T03:56:13.757Z,6.26
2024-03-13T03:56:46.904Z,6.18
2024-03-13T03:57:20.911Z,6.25
2024-03-13T03:57:52.773Z,6.30
2024-03-13T03:58:24.724Z,6.34
2024-03-13T03:58:56.605Z,6.35
2024-03-13T03:59:28.534Z,6.27
2024-03-13T04:00:01.838Z,6.34
2024-03-13T04:00:36.688Z,6.21
2024-03-13T04:01:09.058Z,6.31
2024-03-13T04:01:43.202Z,6.35
2024-03-13T04:02:17.616Z,6.31
2024-03-13T04:02:49.576Z,6.29
2024-03-13T04:03:21.438Z,6.38
2024-03-13T04:03:53.386Z,6.46
2024-03-13T04:04:27.427Z,6.39
2024-03-13T04:04:59.375Z,6.29
2024-03-13T04:05:31.775Z,6.26
2024-03-13T04:06:04.744Z,6.25
2024-03-13T04:06:36.595Z,6.22
2024-03-13T04:07:09.317Z,6.25
2024-03-13T04:07:41.292Z,6.27
2024-03-13T04:08:15.431Z,6.31
2024-03-13T04:08:49.065Z,6.24
2024-03-13T04:09:21.596Z,6.33
2024-03-13T04:09:53.706Z,6.22
2024-03-13T04:10:25.714Z,6.22
2024-03-13T04:10:57.694Z,6.25
2024-03-13T04:11:30.609Z,6.21
2024-03-13T04:12:02.511Z,6.20
2024-03-13T04:12:35.141Z,6.14
2024-03-13T04:13:07.116Z,6.23
2024-03-13T04:13:42.004Z,6.30
2024-03-13T04:14:13.958Z,6.24
2024-03-13T04:14:45.804Z,6.39
2024-03-13T04:15:22.526Z,6.35
2024-03-13T04:15:54.564Z,6.22
2024-03-13T04:16:26.909Z,6.31
2024-03-13T04:16:58.827Z,6.39
2024-03-13T04:17:30.635Z,6.29
2024-03-13T04:18:04.809Z,6.38
2024-03-13T04:18:37.230Z,6.26
2024-03-13T04:19:11.874Z,6.41
2024-03-13T04:19:43.850Z,6.34
2024-03-13T04:20:20.067Z,6.32
2024-03-13T04:20:52.043Z,6.42
2024-03-13T04:21:23.868Z,6.35
2024-03-13T04:21:55.770Z,6.26
2024-03-13T04:22:28.598Z,6.26
2024-03-13T04:23:01.419Z,6.31
2024-03-13T04:23:33.268Z,6.25
2024-03-13T04:24:06.341Z,6.19
2024-03-13T04:24:38.188Z,6.21
2024-03-13T04:25:10.072Z,6.14
2024-03-13T04:25:42.077Z,6.12
2024-03-13T04:26:16.192Z,6.30
2024-03-13T04:26:48.014Z,6.18
2024-03-13T04:27:21.104Z,6.13
2024-03-13T04:27:56.142Z,6.16
2024-03-13T04:28:28.326Z,6.31
2024-03-13T04:29:00.238Z,6.33
2024-03-13T04:29:38.685Z,6.27
2024-03-13T04:30:15.480Z,6.22
2024-03-13T04:30:50.013Z,6.22
2024-03-13T04:31:21.910Z,6.17
2024-03-13T04:31:53.809Z,6.11
2024-03-13T04:32:26.486Z,6.00
2024-03-13T04:32:59.294Z,6.11
2024-03-13T04:33:31.194Z,5.98
2024-03-13T04:34:03.084Z,6.12
2024-03-13T04:34:35.016Z,6.10
2024-03-13T04:35:07.193Z,6.10
2024-03-13T04:35:39.039Z,6.08
2024-03-13T04:36:10.893Z,6.16
2024-03-13T04:36:42.736Z,6.24
2024-03-13T04:37:16.554Z,6.07
2024-03-13T04:37:48.501Z,6.15
2024-03-13T04:38:20.366Z,6.12
2024-03-13T04:38:52.453Z,6.12
2024-03-13T04:39:24.367Z,6.01
2024-03-13T04:39:58.591Z,5.99
2024-03-13T04:40:30.491Z,6.00
2024-03-13T04:41:02.338Z,6.10
2024-03-13T04:41:34.804Z,5.95
2024-03-13T04:42:06.647Z,5.94
2024-03-13T04:42:38.505Z,5.93
2024-03-13T04:43:10.437Z,6.05
2024-03-13T04:43:42.352Z,6.08
2024-03-13T04:44:14.173Z,6.09
2024-03-13T04:44:46.018Z,5.99
2024-03-13T04:45:17.826Z,6.02
2024-03-13T04:45:49.729Z,5.90
2024-03-13T04:46:21.877Z,5.88
2024-03-13T04:46:53.711Z,6.05
2024-03-13T04:47:26.161Z,6.02
2024-03-13T04:47:58.068Z,6.06
2024-03-13T04:48:29.912Z,6.01
2024-03-13T04:49:01.768Z,6.07
2024-03-13T04:49:33.654Z,6.06
2024-03-13T04:50:05.794Z,6.11
2024-03-13T04:50:37.952Z,6.13
2024-03-13T04:51:10.354Z,6.16
2024-03-13T04:51:42.197Z,6.14
2024-03-13T04:52:14.098Z,6.02
2024-03-13T04:52:46.641Z,5.96
2024-03-13T04:53:24.084Z,5.99
2024-03-13T04:53:55.914Z,6.00
2024-03-13T04:54:27.736Z,6.01
2024-03-13T04:55:00.377Z,5.98
2024-03-13T04:55:32.330Z,5.87
2024-03-13T04:56:07.312Z,5.94
2024-03-13T04:56:39.589Z,5.98
2024-03-13T04:57:11.444Z,6.03
2024-03-13T04:57:43.321Z,6.03
2024-03-13T04:58:15.179Z,6.04
2024-03-13T04:58:47.054Z,5.99
2024-03-13T04:59:18.874Z,5.95
2024-03-13T04:59:51.626Z,5.95
2024-03-13T05:00:23.506Z,5.94
2024-03-13T05:00:55.388Z,6.02
2024-03-13T05:01:27.375Z,5.94
2024-03-13T05:01:59.456Z,5.93
2024-03-13T05:02:31.373Z,6.03
2024-03-13T05:03:04.575Z,6.11
2024-03-13T05:03:36.983Z,5.93
2024-03-13T05:04:08.964Z,5.93
2024-03-13T05:04:40.777Z,6.08
2024-03-13T05:05:18.277Z,6.06
2024-03-13T05:05:50.103Z,5.99
2024-03-13T05:06:22.249Z,6.02
2024-03-13T05:06:57.932Z,6.03
2024-03-13T05:07:29.790Z,6.07
2024-03-13T05:08:03.249Z,6.07
2024-03-13T05:08:35.307Z,6.05
2024-03-13T05:09:08.173Z,6.10
2024-03-13T05:09:42.816Z,6.09
2024-03-13T05:10:18.677Z,6.01
2024-03-13T05:10:51.220Z,6.05
2024-03-13T05:11:23.119Z,6.08
2024-03-13T05:11:54.985Z,6.06
2024-03-13T05:12:27.666Z,6.04
2024-03-13T05:12:59.689Z,6.12
2024-03-13T05:13:32.804Z,6.12
2024-03-13T05:14:04.700Z,6.11
2024-03-13T05:14:36.539Z,6.10
2024-03-13T05:15:09.780Z,6.13
2024-03-13T05:15:41.652Z,6.12
2024-03-13T05:16:14.395Z,6.11
2024-03-13T05:16:46.582Z,6.05
2024-03-13T05:17:18.421Z,6.09
2024-03-13T05:17:50.967Z,6.03
2024-03-13T05:18:23.003Z,6.11
2024-03-13T05:18:54.877Z,6.08
2024-03-13T05:19:26.740Z,6.04
2024-03-13T05:19:59.671Z,6.16
2024-03-13T05:20:31.542Z,6.17
2024-03-13T05:21:03.343Z,6.06
2024-03-13T05:21:35.193Z,6.03
2024-03-13T05:22:07.130Z,6.06
2024-03-13T05:22:39.025Z,6.05
2024-03-13T05:23:10.904Z,6.11
2024-03-13T05:23:42.734Z,6.14
2024-03-13T05:24:17.415Z,6.17
2024-03-13T05:24:50.849Z,6.12
2024-03-13T05:25:25.588Z,6.15
2024-03-13T05:25:57.485Z,6.26
2024-03-13T05:26:29.841Z,6.36
2024-03-13T05:27:01.658Z,6.36
2024-03-13T05:27:33.933Z,6.35
2024-03-13T05:28:05.945Z,6.23
2024-03-13T05:28:38.268Z,6.27
2024-03-13T05:29:10.809Z,6.29
2024-03-13T05:29:42.756Z,6.26
2024-03-13T05:30:14.686Z,6.33
2024-03-13T05:30:46.542Z,6.37
2024-03-13T05:31:18.386Z,6.41
2024-03-13T05:31:51.128Z,6.31
2024-03-13T05:32:23.036Z,6.21
2024-03-13T05:32:54.955Z,6.28
2024-03-13T05:33:26.836Z,6.28
2024-03-13T05:33:58.689Z,6.42
2024-03-13T05:34:30.609Z,6.26
2024-03-13T05:35:02.446Z,6.31
2024-03-13T05:35:34.463Z,6.37
2024-03-13T05:36:08.246Z,6.39
2024-03-13T05:36:40.111Z,6.44
2024-03-13T05:37:13.317Z,6.42
2024-03-13T05:37:45.266Z,6.46
2024-03-13T05:38:18.090Z,6.46
2024-03-13T05:38:50.125Z,6.45
2024-03-13T05:39:22.152Z,6.47
2024-03-13T05:39:54.130Z,6.62
2024-03-13T05:40:26.063Z,6.57
2024-03-13T05:40:59.180Z,6.54
2024-03-13T05:41:31.016Z,6.57
2024-03-13T05:42:02.884Z,6.55
2024-03-13T05:42:34.929Z,6.45
2024-03-13T05:43:06.831Z,6.40
2024-03-13T05:43:39.135Z,6.46
2024-03-13T05:44:11.394Z,6.41
2024-03-13T05:44:43.309Z,6.37
2024-03-13T05:45:15.399Z,6.38
2024-03-13T05:45:47.721Z,6.43
2024-03-13T05:46:19.665Z,6.41
2024-03-13T05:46:52.759Z,6.27
2024-03-13T05:47:24.588Z,6.31
2024-03-13T05:47:56.482Z,6.34
2024-03-13T05:48:28.569Z,6.40
2024-03-13T05:49:00.419Z,6.33
2024-03-13T05:49:32.282Z,6.36
2024-03-13T05:50:04.571Z,6.45
2024-03-13T05:50:36.821Z,6.47
2024-03-13T05:51:09.984Z,6.40
2024-03-13T05:51:42.255Z,6.40
2024-03-13T05:52:14.101Z,6.39
2024-03-13T05:52:49.137Z,6.40
2024-03-13T05:53:21.455Z,6.39
2024-03-13T05:53:53.273Z,6.38
2024-03-13T05:54:25.362Z,6.49
2024-03-13T05:54:57.420Z,6.57
2024-03-13T05:55:29.276Z,6.53
2024-03-13T05:56:01.695Z,6.56
2024-03-13T05:56:33.549Z,6.49
2024-03-13T05:57:05.378Z,6.55
2024-03-13T05:57:39.734Z,6.57
2024-03-13T05:58:12.099Z,6.58
2024-03-13T05:58:43.972Z,6.67
2024-03-13T05:59:15.780Z,6.60
2024-03-13T05:59:47.760Z,6.55
2024-03-13T06:00:20.856Z,6.52
2024-03-13T06:00:53.847Z,6.57
2024-03-13T06:01:28.433Z,6.51
2024-03-13T06:02:01.226Z,6.53
2024-03-13T06:02:33.626Z,6.53
2024-03-13T06:03:05.598Z,6.47
2024-03-13T06:03:37.714Z,6.50
2024-03-13T06:04:09.591Z,6.51
2024-03-13T06:04:41.523Z,6.54
2024-03-13T06:05:15.806Z,6.64
2024-03-13T06:05:47.677Z,6.75
2024-03-13T06:06:19.525Z,6.66
2024-03-13T06:06:52.622Z,6.55
2024-03-13T06:07:24.540Z,6.61
2024-03-13T06:07:59.763Z,6.56
2024-03-13T06:08:33.117Z,6.68
2024-03-13T06:09:04.961Z,6.69
2024-03-13T06:09:39.694Z,6.70
2024-03-13T06:10:12.023Z,6.69
2024-03-13T06:10:44.206Z,6.67
2024-03-13T06:11:19.948Z,6.70
2024-03-13T06:11:51.873Z,6.86
2024-03-13T06:12:23.770Z,6.78
2024-03-13T06:12:55.656Z,6.85
2024-03-13T06:13:27.617Z,6.88
2024-03-13T06:14:00.419Z,6.75
2024-03-13T06:14:32.308Z,6.71
2024-03-13T06:15:08.041Z,6.76
2024-03-13T06:15:39.856Z,6.78
2024-03-13T06:16:11.768Z,6.76
2024-03-13T06:16:43.724Z,6.92
2024-03-13T06:17:15.564Z,7.00
2024-03-13T06:17:47.726Z,6.89
2024-03-13T06:18:19.762Z,6.97
2024-03-13T06:18:51.899Z,7.04
2024-03-13T06:19:24.302Z,7.05
2024-03-13T06:19:56.199Z,7.06
2024-03-13T06:20:28.037Z,7.12
2024-03-13T06:20:59.882Z,7.20
2024-03-13T06:21:31.917Z,7.20
2024-03-13T06:22:03.794Z,7.23
2024-03-13T06:22:37.033Z,7.25
2024-03-13T06:23:09.002Z,7.28
2024-03-13T06:23:49.434Z,7.25
2024-03-13T06:24:31.519Z,7.40
2024-03-13T06:25:07.589Z,7.40
2024-03-13T06:25:40.408Z,7.41
2024-03-13T06:26:18.070Z,7.48
2024-03-13T06:26:51.787Z,7.58
2024-03-13T06:27:28.634Z,7.50
2024-03-13T06:28:23.115Z,7.70
2024-03-13T06:29:14.209Z,7.79
2024-03-13T06:29:59.358Z,7.96
2024-03-13T06:30:32.337Z,7.78
2024-03-13T06:31:04.461Z,7.87
2024-03-13T06:31:42.125Z,7.79
2024-03-13T06:32:15.742Z,7.86
2024-03-13T06:32:47.598Z,8.03
2024-03-13T06:33:19.509Z,8.05
2024-03-13T06:33:53.406Z,8.13
2024-03-13T06:34:25.317Z,8.08
2024-03-13T06:34:57.749Z,8.17
2024-03-13T06:35:32.119Z,8.06
2024-03-13T06:36:04.030Z,8.22
2024-03-13T06:36:37.843Z,8.37
2024-03-13T06:37:09.762Z,8.27
2024-03-13T06:37:41.699Z,8.35
2024-03-13T06:38:13.602Z,8.35
2024-03-13T06:38:47.383Z,8.45
2024-03-13T06:39:54.796Z,8.52
2024-03-13T06:40:26.912Z,8.54
2024-03-13T06:40:58.794Z,8.70
2024-03-13T06:41:30.792Z,8.61
2024-03-13T06:42:02.607Z,8.71
2024-03-13T06:42:34.438Z,8.66
2024-03-13T06:43:06.372Z,8.78
2024-03-13T06:43:38.317Z,9.00
2024-03-13T06:44:10.136Z,8.97
2024-03-13T06:44:42.013Z,8.76
2024-03-13T06:45:21.285Z,8.93
2024-03-13T06:45:59.751Z,8.96
2024-03-13T06:46:31.691Z,8.96
2024-03-13T06:47:03.602Z,8.96
2024-03-13T06:47:35.519Z,8.95
2024-03-13T06:48:07.566Z,8.94
2024-03-13T06:48:39.540Z,8.85
2024-03-13T06:49:11.452Z,8.93
2024-03-13T06:49:44.754Z,9.04
2024-03-13T06:50:50.366Z,8.73
2024-03-13T06:51:22.529Z,9.03
2024-03-13T06:51:54.423Z,8.99
2024-03-13T06:52:26.312Z,9.02
2024-03-13T06:52:58.260Z,9.14
2024-03-13T06:53:30.099Z,8.98
2024-03-13T06:54:01.973Z,8.96
2024-03-13T06:54:33.798Z,9.02
2024-03-13T06:55:05.690Z,8.97
2024-03-13T06:55:37.600Z,9.13
2024-03-13T06:56:09.438Z,9.22
2024-03-13T06:56:41.367Z,9.45
2024-03-13T06:57:15.906Z,9.46
2024-03-13T06:57:47.770Z,9.17
2024-03-13T06:58:19.589Z,9.37
2024-03-13T06:58:51.571Z,9.40
2024-03-13T06:59:24.571Z,9.47
2024-03-13T06:59:59.996Z,9.29
2024-03-13T07:00:34.323Z,9.25
2024-03-13T07:01:15.440Z,9.19
2024-03-13T07:01:47.786Z,9.52
2024-03-13T07:02:19.705Z,9.49
2024-03-13T07:02:51.645Z,9.43
2024-03-13T07:03:25.035Z,9.34
2024-03-13T07:03:57.323Z,9.47
2024-03-13T07:04:30.460Z,9.33
2024-03-13T07:05:02.332Z,9.34
2024-03-13T07:05:34.195Z,9.38
2024-03-13T07:06:07.539Z,9.31
2024-03-13T07:06:42.694Z,9.48
2024-03-13T07:07:14.614Z,9.61
2024-03-13T07:07:46.508Z,9.46
2024-03-13T07:08:19.452Z,9.54
2024-03-13T07:08:51.265Z,9.59
2024-03-13T07:09:23.078Z,9.72
2024-03-13T07:09:56.016Z,9.89
2024-03-13T07:10:28.074Z,9.85
2024-03-13T07:11:00.545Z,9.68
2024-03-13T07:11:32.533Z,9.85
2024-03-13T07:12:05.470Z,9.77
2024-03-13T07:12:39.038Z,9.92
2024-03-13T07:13:10.917Z,9.84
2024-03-13T07:13:42.791Z,9.89
2024-03-13T07:14:16.598Z,10.07
2024-03-13T07:14:48.419Z,9.94
2024-03-13T07:15:20.369Z,10.04
2024-03-13T07:15:52.550Z,10.19
2024-03-13T07:16:24.429Z,10.28
2024-03-13T07:16:56.706Z,10.46
2024-03-13T07:17:29.118Z,10.32
2024-03-13T07:18:01.307Z,10.36
2024-03-13T07:18:33.624Z,10.09
2024-03-13T07:19:08.443Z,10.09
2024-03-13T07:19:40.934Z,9.79
2024-03-13T07:20:12.779Z,9.89
2024-03-13T07:20:44.657Z,10.01
2024-03-13T07:21:16.513Z,10.11
2024-03-13T07:21:48.954Z,10.24
2024-03-13T07:22:21.021Z,10.39
2024-03-13T07:22:52.884Z,10.22
2024-03-13T07:23:25.141Z,10.30
2024-03-13T07:23:57.245Z,10.41
2024-03-13T07:24:29.092Z,10.51
2024-03-13T07:25:02.288Z,10.81
2024-03-13T07:25:34.282Z,10.73